Flight Track Log - Related Links

Times and Time Zones

All times are in EDT time to prevent confusion due to time zone crossing. See the N9253Q flight status page for this flight to view local times or setup timezone preferences in your user account.

Time Position Orientation Groundspeed Altitude Reporting Facility
EDT Latitude Longitude Course Direction KTS MPH feet Rate Location/Type
Sun 11:00:11 AM 39.3383 -90.1133 29° Northeast 157 181 5,600  Level Kansas City Center
Sun 11:01:15 AM 39.3769 -90.0856 29° Northeast 156 180 5,600  Level Kansas City Center
Sun 11:02:16 AM 39.4203 -90.0486 33° Northeast 156 180 5,600  Level Kansas City Center
Sun 11:03:20 AM 39.4556 -90.0136 37° Northeast 157 181 5,600  Level Kansas City Center
Sun 11:04:21 AM 39.4778 -89.9597 62° Northeast 163 188 5,600 -49 Level Kansas City Center
Sun 11:05:22 AM 39.5117 -89.9197 42° Northeast 165 190 5,500  Descending Kansas City Center
Sun 11:06:25 AM 39.5525 -89.8975 23° Northeast 164 189 5,600 48 Climbing Kansas City Center
Sun 11:07:26 AM 39.5883 -89.8633 36° Northeast 160 184 5,600  Level Kansas City Center
Sun 11:08:27 AM 39.6311 -89.8214 37° Northeast 160 184 5,600  Level Kansas City Center
Sun 11:09:31 AM 39.6706 -89.7942 28° Northeast 160 184 5,600  Level Kansas City Center
Sun 11:10:32 AM 39.7078 -89.7619 34° Northeast 160 184 5,600  Level Kansas City Center
Sun 11:11:34 AM 39.7461 -89.7228 38° Northeast 162 186 5,600  Level Kansas City Center
Sun 11:12:37 AM 39.7844 -89.6931 31° Northeast 162 186 5,600  Level Kansas City Center
Sun 11:13:39 AM 39.8231 -89.6631 31° Northeast 162 186 5,600  Level Kansas City Center
Sun 11:14:40 AM 39.8597 -89.6292 35° Northeast 162 186 5,600  Level Kansas City Center
Sun 11:15:41 AM 39.8992 -89.6000 30° Northeast 162 186 5,600  Level Kansas City Center
Sun 11:16:45 AM 39.9439 -89.5589 35° Northeast 162 186 5,600  Level Kansas City Center
Sun 11:17:46 AM 39.9806 -89.5236 36° Northeast 163 188 5,600  Level Kansas City Center
Sun 11:18:47 AM 40.0192 -89.4944 30° Northeast 163 188 5,600  Level Kansas City Center
Sun 11:19:51 AM 40.0572 -89.4606 34° Northeast 163 188 5,600  Level Kansas City Center
Sun 11:20:53 AM 40.0936 -89.4267 35° Northeast 163 188 5,600  Level Kansas City Center
Sun 11:21:54 AM 40.1317 -89.3942 33° Northeast 163 188 5,600  Level Kansas City Center
Sun 11:22:41 AM 40.1625 -89.3692 32° Northeast 162 186 5,600  Level Chicago Center
Sun 11:23:43 AM 40.2089 -89.3317 32° Northeast 162 186 5,600  Level Chicago Center
Sun 11:24:45 AM 40.2461 -89.2981 35° Northeast 162 186 5,600  Level Chicago Center
Sun 11:25:47 AM 40.2842 -89.2650 34° Northeast 162 186 5,600  Level Chicago Center
Sun 11:26:49 AM 40.3219 -89.2322 33° Northeast 162 186 5,600  Level Chicago Center
Sun 11:27:50 AM 40.3606 -89.1981 34° Northeast 164 189 5,600  Level Chicago Center
Sun 11:28:52 AM 40.3981 -89.1631 35° Northeast 164 189 5,600  Level Chicago Center
Sun 11:29:54 AM 40.4450 -89.1253 31° Northeast 164 189 5,600  Level Chicago Center
Sun 11:30:56 AM 40.4814 -89.0889 37° Northeast 165 190 5,600  Level Chicago Center
Sun 11:31:58 AM 40.5217 -89.0586 30° Northeast 165 190 5,600  Level Chicago Center
Sun 11:32:59 AM 40.5603 -89.0261 33° Northeast 165 190 5,600  Level Chicago Center
Sun 11:34:01 AM 40.5986 -88.9931 33° Northeast 165 190 5,600  Level Chicago Center
Sun 11:35:03 AM 40.6369 -88.9622 31° Northeast 165 190 5,600  Level Chicago Center
Sun 11:36:05 AM 40.6747 -88.9281 34° Northeast 165 190 5,600  Level Chicago Center
Sun 11:37:07 AM 40.7197 -88.8914 32° Northeast 164 189 5,600  Level Chicago Center
Sun 11:38:09 AM 40.7586 -88.8592 32° Northeast 164 189 5,600  Level Chicago Center
Sun 11:39:10 AM 40.7989 -88.8231 34° Northeast 163 188 5,600  Level Chicago Center
Sun 11:40:12 AM 40.8372 -88.7914 32° Northeast 163 188 5,600  Level Chicago Center
Sun 11:41:14 AM 40.8750 -88.7578 34° Northeast 164 189 5,600  Level Chicago Center
Sun 11:42:16 AM 40.9119 -88.7233 35° Northeast 164 189 5,600  Level Chicago Center
Sun 11:43:18 AM 40.9503 -88.6900 33° Northeast 164 189 5,600  Level Chicago Center
Sun 11:44:20 AM 40.9883 -88.6578 33° Northeast 164 189 5,600  Level Chicago Center
Sun 11:45:22 AM 41.0331 -88.6183 34° Northeast 165 190 5,600  Level Chicago Center
Sun 11:46:24 AM 41.0736 -88.5819 34° Northeast 165 190 5,600  Level Chicago Center
Sun 11:47:25 AM 41.1114 -88.5481 34° Northeast 164 189 5,600  Level Chicago Center
Sun 11:48:27 AM 41.1522 -88.5108 34° Northeast 164 189 5,600  Level Chicago Center
Sun 11:49:29 AM 41.1906 -88.4772 33° Northeast 165 190 5,600  Level Chicago Center
Sun 11:50:31 AM 41.2300 -88.4433 33° Northeast 166 191 5,600  Level Chicago Center
Sun 11:51:33 AM 41.2678 -88.4006 40° Northeast 168 193 5,600  Level Chicago Center

Login

Don't have an account? Register now (free) for customized features, flight alerts, and more!